WetterOnline ( https://www.wetteronline.de )

Wetter aktuell Irrel

Aktuelles Wetter: Trier/Petrisberg (273m)

6-stündlich | Neueste Meldungen
Ortszeit Temperatur Wetter
Mi, 29.05. 2:00 13.6° C bedeckt
Di, 28.05. 20:00 15.7° C bedeckt
Di, 28.05. 14:00 17.0° C bewölkt
Di, 28.05. 8:00 10.1° C bewölkt
Di, 28.05. 2:00 11.1° C wolkenlos
Mo, 27.05. 20:00 16.5° C bewölkt
Mo, 27.05. 14:00 20.0° C wolkig
Mo, 27.05. 8:00 14.6° C bewölkt
Ortszeit Temperatur Wetter
Mi, 29.05. 2:00 13.6° C bedeckt
Mi, 29.05. 1:50 13.6° C bedeckt
Mi, 29.05. 1:40 13.6° C bedeckt
Mi, 29.05. 1:30 13.6° C bedeckt
Mi, 29.05. 1:20 13.6° C bedeckt
Mi, 29.05. 1:10 13.6° C bedeckt
Mi, 29.05. 1:00 13.8° C bewölkt
Mi, 29.05. 0:30 13.9° C leichter Regen
Mi, 29.05. 0:00 14.2° C wolkig
Di, 28.05. 23:30 14.2° C bewölkt
Di, 28.05. 23:00 14.0° C Sprühregen
Ortszeit Relative Feuchte Sichtweite
Mi, 29.05. 2:00 91% 50 km
Di, 28.05. 20:00 67% 55 km
Di, 28.05. 14:00 51% >70 km
Di, 28.05. 8:00 87% 45 km
Di, 28.05. 2:00 78% 65 km
Mo, 27.05. 20:00 60% 55 km
Mo, 27.05. 14:00 48% 50 km
Mo, 27.05. 8:00 82% 40 km
Ortszeit Relative Feuchte Sichtweite
Mi, 29.05. 2:00 91% 50 km
Mi, 29.05. 1:50 91% -
Mi, 29.05. 1:40 92% -
Mi, 29.05. 1:30 91% 50 km
Mi, 29.05. 1:20 91% -
Mi, 29.05. 1:10 90% -
Mi, 29.05. 1:00 88% 50 km
Mi, 29.05. 0:30 85% 50 km
Mi, 29.05. 0:00 82% 50 km
Di, 28.05. 23:30 83% 55 km
Di, 28.05. 23:00 82% 30 km
Ortszeit Niederschlagsmenge Niederschlagsart
Mi, 29.05. 2:00 0.3 l/m2 in 6 Std. Regen
Di, 28.05. 20:00 0.1 l/m2 in 12 Std. Regen
Di, 28.05. 14:00 0.0 l/m2 in 6 Std. -
Di, 28.05. 8:00 0.1 l/m2 in 12 Std. -
Di, 28.05. 2:00 0.1 l/m2 in 6 Std. Regen
Mo, 27.05. 20:00 0.0 l/m2 in 12 Std. -
Mo, 27.05. 14:00 0.0 l/m2 in 6 Std. -
Mo, 27.05. 8:00 0.0 l/m2 in 12 Std. -
Ortszeit Niederschlagsmenge Niederschlagsart
Mi, 29.05. 2:00 <0.05 l/m2 in 1 Std. Regen
Mi, 29.05. 1:50 keine Meldung -
Mi, 29.05. 1:40 keine Meldung -
Mi, 29.05. 1:30 0.0 l/m2 in 30 Min -
Mi, 29.05. 1:20 keine Meldung -
Mi, 29.05. 1:10 keine Meldung -
Mi, 29.05. 1:00 0.1 l/m2 in 1 Std. Regen
Mi, 29.05. 0:30 0.1 l/m2 in 30 Min -
Mi, 29.05. 0:00 <0.05 l/m2 in 1 Std. Sprühregen
Di, 28.05. 23:30 <0.05 l/m2 in 30 Min Schnee
Di, 28.05. 23:00 <0.05 l/m2 in 1 Std. Regen
Ortszeit Stärke Spitze Richtung
km/h Bft. km/h Grad Sektor
Mi, 29.05. 2:00 22 4 32 220° SW
Di, 28.05. 20:00 15 3 39 230° SW
Di, 28.05. 14:00 22 4 36 210° SW
Di, 28.05. 8:00 7 2 22 210° SW
Di, 28.05. 2:00 15 3 33 240° SW
Mo, 27.05. 20:00 17 3 46 270° W
Mo, 27.05. 14:00 28 4 44 210° SW
Mo, 27.05. 8:00 4 1 14 190° S
Ortszeit Stärke Spitze Richtung
km/h Bft. km/h Grad Sektor
Mi, 29.05. 2:00 22 4 32 220° SW
Mi, 29.05. 1:50 22 4 - 220° SW
Mi, 29.05. 1:40 20 4 - 220° SW
Mi, 29.05. 1:30 20 4 33 210° SW
Mi, 29.05. 1:20 20 4 - 210° SW
Mi, 29.05. 1:10 22 4 - 210° SW
Mi, 29.05. 1:00 22 4 32 210° SW
Mi, 29.05. 0:30 19 3 30 210° SW
Mi, 29.05. 0:00 18 3 32 210° SW
Di, 28.05. 23:30 20 4 33 220° SW
Di, 28.05. 23:00 11 2 25 210° SW
Ortszeit Untergrenze Bedeckung Gattung
total tief tief mittel hoch
Mi, 29.05. 2:00 270 m 8/8 8/8 - - -
Di, 28.05. 20:00 1290 m 8/8 8/8 - - -
Di, 28.05. 14:00 1800 m 7/8 7/8 - - -
Di, 28.05. 8:00 1320 m 7/8 7/8 - - -
Di, 28.05. 2:00 - 0/8 0/8 - - -
Mo, 27.05. 20:00 1170 m 8/8 6/8 - - -
Mo, 27.05. 14:00 1440 m 8/8 2/8 - - -
Mo, 27.05. 8:00 1470 m 7/8 7/8 - - -
Ortszeit Bedeckungsgrad in Achtel und Wolkenuntergrenze
Mi, 29.05. 2:00 8(270m)
Mi, 29.05. 1:50 8(270m)
Mi, 29.05. 1:40 8
Mi, 29.05. 1:30 8(270m)
Mi, 29.05. 1:20 8(270m)
Mi, 29.05. 1:10 8
Mi, 29.05. 1:00 7(360m)
Mi, 29.05. 0:30 5(450m)
Mi, 29.05. 0:00 5(510m)
Di, 28.05. 23:30 7(510m)
Di, 28.05. 23:00 8(660m) 8(3900m) 8(5700m)
Ortszeit Luftdruck NN (hPa) Tendenz (hPa in 3 Std.)
Mi, 29.05. 2:00 1017 - 1,0
Di, 28.05. 20:00 1018 - 0,1
Di, 28.05. 14:00 1019 - 1,1
Di, 28.05. 8:00 1021 + 0,7
Di, 28.05. 2:00 1020 + 0,3
Mo, 27.05. 20:00 1017 + 0,6
Mo, 27.05. 14:00 1016 - 1,1
Mo, 27.05. 8:00 1018 + 0,6
Ortszeit Luftdruck NN (hPa) Tendenz (hPa in 3 Std.)
Mi, 29.05. 2:00 1017 - 1,0
Mi, 29.05. 1:50 1017 keine Meldung
Mi, 29.05. 1:40 1017 keine Meldung
Mi, 29.05. 1:30 1017 - 0,9
Mi, 29.05. 1:20 1017 keine Meldung
Mi, 29.05. 1:10 1017 keine Meldung
Mi, 29.05. 1:00 1017 - 0,9
Mi, 29.05. 0:30 1017 - 0,6
Mi, 29.05. 0:00 1017 - 0,5
Di, 28.05. 23:30 1018 - 0,3
Di, 28.05. 23:00 1018 - 0,4
Ortszeit Schneehöhe (cm)
Mi, 29.05. 2:00 0
Di, 28.05. 20:00 0
Di, 28.05. 14:00 0
Di, 28.05. 8:00 0
Di, 28.05. 2:00 0
Mo, 27.05. 20:00 0
Mo, 27.05. 14:00 0
Mo, 27.05. 8:00 0
Ortszeit Schneehöhe (cm)
Mi, 29.05. 2:00 0
Mi, 29.05. 1:50 0
Mi, 29.05. 1:40 -
Mi, 29.05. 1:30 0
Mi, 29.05. 1:20 0
Mi, 29.05. 1:10 -
Mi, 29.05. 1:00 0
Mi, 29.05. 0:30 0
Mi, 29.05. 0:00 0
Di, 28.05. 23:30 0
Di, 28.05. 23:00 0
Link zu dieser Seite / Seite empfehlen

Das Wetter in ...